sensor_id;sensor_type;location;lat;lon;timestamp;P1;durP1;ratioP1;P2;durP2;ratioP2
14205;SDS011;7186;48.800;9.216;2022-09-09T00:01:35;4.60;;;2.03;;
14205;SDS011;7186;48.800;9.216;2022-09-09T00:04:05;4.03;;;1.90;;
14205;SDS011;7186;48.800;9.216;2022-09-09T00:06:32;4.80;;;1.60;;
14205;SDS011;7186;48.800;9.216;2022-09-09T00:11:30;2.20;;;1.50;;
14205;SDS011;7186;48.800;9.216;2022-09-09T00:14:02;3.80;;;1.60;;
14205;SDS011;7186;48.800;9.216;2022-09-09T00:16:29;2.87;;;1.80;;
14205;SDS011;7186;48.800;9.216;2022-09-09T00:19:01;3.57;;;1.80;;
14205;SDS011;7186;48.800;9.216;2022-09-09T00:21:35;3.90;;;1.77;;
14205;SDS011;7186;48.800;9.216;2022-09-09T00:24:08;2.23;;;1.87;;
14205;SDS011;7186;48.800;9.216;2022-09-09T00:26:36;3.60;;;2.20;;
14205;SDS011;7186;48.800;9.216;2022-09-09T00:29:12;7.03;;;2.70;;
14205;SDS011;7186;48.800;9.216;2022-09-09T00:31:39;4.80;;;2.30;;
14205;SDS011;7186;48.800;9.216;2022-09-09T00:34:09;4.67;;;2.33;;
14205;SDS011;7186;48.800;9.216;2022-09-09T00:36:36;5.70;;;2.67;;
14205;SDS011;7186;48.800;9.216;2022-09-09T00:39:03;5.37;;;2.40;;
14205;SDS011;7186;48.800;9.216;2022-09-09T00:43:57;2.20;;;1.90;;
14205;SDS011;7186;48.800;9.216;2022-09-09T00:56:47;3.60;;;2.00;;
14205;SDS011;7186;48.800;9.216;2022-09-09T00:59:20;5.10;;;1.90;;
14205;SDS011;7186;48.800;9.216;2022-09-09T01:01:46;2.23;;;1.83;;
14205;SDS011;7186;48.800;9.216;2022-09-09T01:04:13;2.97;;;1.80;;
14205;SDS011;7186;48.800;9.216;2022-09-09T01:06:41;6.30;;;1.93;;
14205;SDS011;7186;48.800;9.216;2022-09-09T01:09:27;2.93;;;1.80;;
14205;SDS011;7186;48.800;9.216;2022-09-09T01:12:02;5.77;;;2.43;;
14205;SDS011;7186;48.800;9.216;2022-09-09T01:24:38;7.10;;;3.13;;
14205;SDS011;7186;48.800;9.216;2022-09-09T01:27:05;7.13;;;3.50;;
14205;SDS011;7186;48.800;9.216;2022-09-09T01:29:33;10.27;;;3.83;;
14205;SDS011;7186;48.800;9.216;2022-09-09T01:32:02;6.73;;;3.93;;
14205;SDS011;7186;48.800;9.216;2022-09-09T01:34:30;8.17;;;3.80;;
14205;SDS011;7186;48.800;9.216;2022-09-09T01:39:21;9.57;;;4.00;;
14205;SDS011;7186;48.800;9.216;2022-09-09T01:41:46;9.83;;;3.90;;
14205;SDS011;7186;48.800;9.216;2022-09-09T01:44:12;8.17;;;4.00;;
14205;SDS011;7186;48.800;9.216;2022-09-09T01:46:37;6.30;;;3.90;;
14205;SDS011;7186;48.800;9.216;2022-09-09T01:49:03;10.20;;;4.33;;
14205;SDS011;7186;48.800;9.216;2022-09-09T01:51:29;9.27;;;4.10;;
14205;SDS011;7186;48.800;9.216;2022-09-09T01:53:55;8.73;;;3.77;;
14205;SDS011;7186;48.800;9.216;2022-09-09T02:03:56;8.17;;;2.80;;
14205;SDS011;7186;48.800;9.216;2022-09-09T02:06:31;7.90;;;3.17;;
14205;SDS011;7186;48.800;9.216;2022-09-09T02:08:59;6.50;;;3.17;;
14205;SDS011;7186;48.800;9.216;2022-09-09T02:11:25;6.87;;;2.73;;
14205;SDS011;7186;48.800;9.216;2022-09-09T02:13:52;8.23;;;3.17;;
14205;SDS011;7186;48.800;9.216;2022-09-09T02:16:23;5.10;;;3.13;;
14205;SDS011;7186;48.800;9.216;2022-09-09T02:18:57;7.33;;;3.40;;
14205;SDS011;7186;48.800;9.216;2022-09-09T02:21:24;6.33;;;3.50;;
14205;SDS011;7186;48.800;9.216;2022-09-09T02:23:50;7.90;;;3.23;;
14205;SDS011;7186;48.800;9.216;2022-09-09T02:26:17;7.20;;;3.53;;
14205;SDS011;7186;48.800;9.216;2022-09-09T02:28:46;7.63;;;3.67;;
14205;SDS011;7186;48.800;9.216;2022-09-09T02:31:14;9.00;;;3.90;;
14205;SDS011;7186;48.800;9.216;2022-09-09T02:33:41;4.97;;;3.37;;
14205;SDS011;7186;48.800;9.216;2022-09-09T02:36:08;7.40;;;3.50;;
14205;SDS011;7186;48.800;9.216;2022-09-09T02:38:35;3.77;;;2.63;;
14205;SDS011;7186;48.800;9.216;2022-09-09T02:41:02;3.43;;;2.10;;
14205;SDS011;7186;48.800;9.216;2022-09-09T02:43:31;6.37;;;2.50;;
14205;SDS011;7186;48.800;9.216;2022-09-09T02:46:00;4.67;;;2.27;;
14205;SDS011;7186;48.800;9.216;2022-09-09T02:48:35;4.73;;;2.27;;
14205;SDS011;7186;48.800;9.216;2022-09-09T02:51:10;3.77;;;2.07;;
14205;SDS011;7186;48.800;9.216;2022-09-09T02:53:43;3.93;;;2.10;;
14205;SDS011;7186;48.800;9.216;2022-09-09T02:56:16;6.50;;;2.40;;
14205;SDS011;7186;48.800;9.216;2022-09-09T02:58:42;2.13;;;1.93;;
14205;SDS011;7186;48.800;9.216;2022-09-09T03:01:08;5.93;;;2.60;;
14205;SDS011;7186;48.800;9.216;2022-09-09T03:03:33;3.60;;;2.20;;
14205;SDS011;7186;48.800;9.216;2022-09-09T03:05:59;3.67;;;2.27;;
14205;SDS011;7186;48.800;9.216;2022-09-09T03:08:24;4.70;;;2.47;;
14205;SDS011;7186;48.800;9.216;2022-09-09T03:10:49;6.27;;;2.70;;
14205;SDS011;7186;48.800;9.216;2022-09-09T03:13:15;6.83;;;2.97;;
14205;SDS011;7186;48.800;9.216;2022-09-09T03:15:40;5.17;;;2.90;;
14205;SDS011;7186;48.800;9.216;2022-09-09T03:18:05;4.60;;;2.80;;
14205;SDS011;7186;48.800;9.216;2022-09-09T03:20:31;4.70;;;2.83;;
14205;SDS011;7186;48.800;9.216;2022-09-09T03:22:56;6.90;;;2.90;;
14205;SDS011;7186;48.800;9.216;2022-09-09T03:25:22;6.87;;;3.00;;
14205;SDS011;7186;48.800;9.216;2022-09-09T03:27:51;5.13;;;3.10;;
14205;SDS011;7186;48.800;9.216;2022-09-09T03:30:19;6.43;;;2.20;;
14205;SDS011;7186;48.800;9.216;2022-09-09T03:32:44;4.07;;;2.40;;
14205;SDS011;7186;48.800;9.216;2022-09-09T03:35:09;5.50;;;2.40;;
14205;SDS011;7186;48.800;9.216;2022-09-09T03:37:35;4.07;;;2.30;;
14205;SDS011;7186;48.800;9.216;2022-09-09T03:40:00;4.37;;;2.57;;
14205;SDS011;7186;48.800;9.216;2022-09-09T03:42:25;5.03;;;2.93;;
14205;SDS011;7186;48.800;9.216;2022-09-09T03:44:51;6.33;;;3.10;;
14205;SDS011;7186;48.800;9.216;2022-09-09T03:47:17;4.60;;;2.73;;
14205;SDS011;7186;48.800;9.216;2022-09-09T03:49:43;6.20;;;2.40;;
14205;SDS011;7186;48.800;9.216;2022-09-09T03:52:08;4.10;;;2.40;;
14205;SDS011;7186;48.800;9.216;2022-09-09T03:54:34;5.27;;;2.20;;
14205;SDS011;7186;48.800;9.216;2022-09-09T03:56:59;7.07;;;2.90;;
14205;SDS011;7186;48.800;9.216;2022-09-09T03:59:25;6.70;;;2.43;;
14205;SDS011;7186;48.800;9.216;2022-09-09T04:01:50;9.67;;;3.20;;
14205;SDS011;7186;48.800;9.216;2022-09-09T04:04:16;6.57;;;3.13;;
14205;SDS011;7186;48.800;9.216;2022-09-09T04:06:41;8.10;;;4.97;;
14205;SDS011;7186;48.800;9.216;2022-09-09T04:09:06;4.43;;;3.00;;
14205;SDS011;7186;48.800;9.216;2022-09-09T04:11:31;4.20;;;2.60;;
14205;SDS011;7186;48.800;9.216;2022-09-09T04:13:56;6.33;;;2.80;;
14205;SDS011;7186;48.800;9.216;2022-09-09T04:16:22;4.00;;;2.50;;
14205;SDS011;7186;48.800;9.216;2022-09-09T04:18:47;6.83;;;3.10;;
14205;SDS011;7186;48.800;9.216;2022-09-09T04:21:13;7.73;;;3.33;;
14205;SDS011;7186;48.800;9.216;2022-09-09T04:23:38;3.90;;;3.00;;
14205;SDS011;7186;48.800;9.216;2022-09-09T04:26:04;5.23;;;2.87;;
14205;SDS011;7186;48.800;9.216;2022-09-09T04:28:31;5.37;;;2.43;;
14205;SDS011;7186;48.800;9.216;2022-09-09T04:30:56;5.70;;;2.33;;
14205;SDS011;7186;48.800;9.216;2022-09-09T04:33:24;6.77;;;3.10;;
14205;SDS011;7186;48.800;9.216;2022-09-09T04:35:53;6.83;;;2.60;;
14205;SDS011;7186;48.800;9.216;2022-09-09T04:38:20;3.63;;;2.30;;
14205;SDS011;7186;48.800;9.216;2022-09-09T04:40:47;6.53;;;2.37;;
14205;SDS011;7186;48.800;9.216;2022-09-09T04:43:13;4.53;;;2.00;;
14205;SDS011;7186;48.800;9.216;2022-09-09T04:45:39;3.73;;;2.50;;
14205;SDS011;7186;48.800;9.216;2022-09-09T04:48:05;6.57;;;2.40;;
14205;SDS011;7186;48.800;9.216;2022-09-09T04:50:30;5.07;;;2.03;;
14205;SDS011;7186;48.800;9.216;2022-09-09T04:52:56;7.43;;;2.40;;
14205;SDS011;7186;48.800;9.216;2022-09-09T04:55:24;3.87;;;2.30;;
14205;SDS011;7186;48.800;9.216;2022-09-09T04:57:49;4.60;;;2.63;;
14205;SDS011;7186;48.800;9.216;2022-09-09T05:00:14;9.20;;;2.80;;
14205;SDS011;7186;48.800;9.216;2022-09-09T05:02:40;5.20;;;3.00;;
14205;SDS011;7186;48.800;9.216;2022-09-09T05:05:06;7.90;;;2.97;;
14205;SDS011;7186;48.800;9.216;2022-09-09T05:07:31;4.93;;;2.73;;
14205;SDS011;7186;48.800;9.216;2022-09-09T05:09:57;6.47;;;2.47;;
14205;SDS011;7186;48.800;9.216;2022-09-09T05:12:23;4.40;;;2.63;;
14205;SDS011;7186;48.800;9.216;2022-09-09T05:14:49;7.73;;;2.30;;
14205;SDS011;7186;48.800;9.216;2022-09-09T05:17:15;3.20;;;2.17;;
14205;SDS011;7186;48.800;9.216;2022-09-09T05:19:41;6.90;;;2.57;;
14205;SDS011;7186;48.800;9.216;2022-09-09T05:22:06;7.13;;;2.87;;
14205;SDS011;7186;48.800;9.216;2022-09-09T05:24:32;7.33;;;3.00;;
14205;SDS011;7186;48.800;9.216;2022-09-09T05:26:58;5.17;;;2.47;;
14205;SDS011;7186;48.800;9.216;2022-09-09T05:29:25;5.67;;;2.73;;
14205;SDS011;7186;48.800;9.216;2022-09-09T05:31:50;3.73;;;2.30;;
14205;SDS011;7186;48.800;9.216;2022-09-09T05:34:15;7.40;;;2.90;;
14205;SDS011;7186;48.800;9.216;2022-09-09T05:36:40;5.67;;;3.50;;
14205;SDS011;7186;48.800;9.216;2022-09-09T05:39:06;6.47;;;2.70;;
14205;SDS011;7186;48.800;9.216;2022-09-09T05:41:31;9.17;;;3.50;;
14205;SDS011;7186;48.800;9.216;2022-09-09T05:43:56;7.60;;;3.00;;
14205;SDS011;7186;48.800;9.216;2022-09-09T05:46:24;8.97;;;3.33;;
14205;SDS011;7186;48.800;9.216;2022-09-09T05:48:50;4.57;;;2.83;;
14205;SDS011;7186;48.800;9.216;2022-09-09T05:51:17;8.03;;;2.87;;
14205;SDS011;7186;48.800;9.216;2022-09-09T05:53:43;7.47;;;3.27;;
14205;SDS011;7186;48.800;9.216;2022-09-09T05:56:10;11.33;;;3.47;;
14205;SDS011;7186;48.800;9.216;2022-09-09T05:58:36;6.63;;;3.07;;
14205;SDS011;7186;48.800;9.216;2022-09-09T06:01:05;7.07;;;3.10;;
14205;SDS011;7186;48.800;9.216;2022-09-09T06:03:33;7.50;;;2.90;;
14205;SDS011;7186;48.800;9.216;2022-09-09T06:06:02;8.97;;;2.93;;
14205;SDS011;7186;48.800;9.216;2022-09-09T06:08:30;3.97;;;2.57;;
14205;SDS011;7186;48.800;9.216;2022-09-09T06:11:00;4.87;;;2.80;;
14205;SDS011;7186;48.800;9.216;2022-09-09T06:13:27;9.80;;;2.90;;
14205;SDS011;7186;48.800;9.216;2022-09-09T06:15:52;7.67;;;3.10;;
14205;SDS011;7186;48.800;9.216;2022-09-09T06:18:17;7.67;;;3.30;;
14205;SDS011;7186;48.800;9.216;2022-09-09T06:20:52;8.23;;;3.40;;
14205;SDS011;7186;48.800;9.216;2022-09-09T06:23:18;9.27;;;3.70;;
14205;SDS011;7186;48.800;9.216;2022-09-09T06:25:45;10.70;;;3.50;;
14205;SDS011;7186;48.800;9.216;2022-09-09T06:28:10;8.40;;;3.63;;
14205;SDS011;7186;48.800;9.216;2022-09-09T06:30:35;13.87;;;3.50;;
14205;SDS011;7186;48.800;9.216;2022-09-09T06:33:01;7.80;;;3.00;;
14205;SDS011;7186;48.800;9.216;2022-09-09T06:35:27;10.17;;;2.97;;
14205;SDS011;7186;48.800;9.216;2022-09-09T06:37:53;7.30;;;2.87;;
14205;SDS011;7186;48.800;9.216;2022-09-09T06:40:18;8.20;;;3.40;;
14205;SDS011;7186;48.800;9.216;2022-09-09T06:42:43;4.70;;;2.43;;
14205;SDS011;7186;48.800;9.216;2022-09-09T06:45:08;7.37;;;2.40;;
14205;SDS011;7186;48.800;9.216;2022-09-09T06:47:34;6.20;;;2.70;;
14205;SDS011;7186;48.800;9.216;2022-09-09T06:49:59;3.60;;;1.93;;
14205;SDS011;7186;48.800;9.216;2022-09-09T06:52:24;4.30;;;2.03;;
14205;SDS011;7186;48.800;9.216;2022-09-09T06:54:50;5.13;;;2.57;;
14205;SDS011;7186;48.800;9.216;2022-09-09T06:57:15;6.40;;;2.27;;
14205;SDS011;7186;48.800;9.216;2022-09-09T06:59:41;5.80;;;2.80;;
14205;SDS011;7186;48.800;9.216;2022-09-09T07:02:07;4.87;;;2.53;;
14205;SDS011;7186;48.800;9.216;2022-09-09T07:04:33;6.87;;;2.90;;
14205;SDS011;7186;48.800;9.216;2022-09-09T07:06:58;6.07;;;2.37;;
14205;SDS011;7186;48.800;9.216;2022-09-09T07:09:23;8.97;;;2.50;;
14205;SDS011;7186;48.800;9.216;2022-09-09T07:11:50;5.10;;;2.37;;
14205;SDS011;7186;48.800;9.216;2022-09-09T07:14:17;7.60;;;2.60;;
14205;SDS011;7186;48.800;9.216;2022-09-09T07:16:43;9.77;;;2.30;;
14205;SDS011;7186;48.800;9.216;2022-09-09T07:19:08;8.57;;;2.23;;
14205;SDS011;7186;48.800;9.216;2022-09-09T07:21:33;4.63;;;2.60;;
14205;SDS011;7186;48.800;9.216;2022-09-09T07:23:59;7.07;;;2.67;;
14205;SDS011;7186;48.800;9.216;2022-09-09T07:26:29;5.97;;;2.50;;
14205;SDS011;7186;48.800;9.216;2022-09-09T07:28:54;6.83;;;2.73;;
14205;SDS011;7186;48.800;9.216;2022-09-09T07:31:32;6.53;;;2.70;;
14205;SDS011;7186;48.800;9.216;2022-09-09T07:33:58;6.57;;;2.57;;
14205;SDS011;7186;48.800;9.216;2022-09-09T07:36:25;3.80;;;1.83;;
14205;SDS011;7186;48.800;9.216;2022-09-09T07:38:55;6.70;;;2.27;;
14205;SDS011;7186;48.800;9.216;2022-09-09T07:41:43;9.30;;;2.13;;
14205;SDS011;7186;48.800;9.216;2022-09-09T07:44:07;2.97;;;2.00;;
14205;SDS011;7186;48.800;9.216;2022-09-09T07:46:33;4.63;;;1.70;;
14205;SDS011;7186;48.800;9.216;2022-09-09T07:48:59;3.27;;;2.00;;
14205;SDS011;7186;48.800;9.216;2022-09-09T07:51:27;4.17;;;2.00;;
14205;SDS011;7186;48.800;9.216;2022-09-09T07:53:57;4.37;;;2.03;;
14205;SDS011;7186;48.800;9.216;2022-09-09T07:56:23;2.47;;;1.60;;
14205;SDS011;7186;48.800;9.216;2022-09-09T07:58:48;6.27;;;2.13;;
14205;SDS011;7186;48.800;9.216;2022-09-09T08:01:15;4.83;;;2.40;;
14205;SDS011;7186;48.800;9.216;2022-09-09T08:03:43;4.10;;;2.43;;
14205;SDS011;7186;48.800;9.216;2022-09-09T08:06:09;3.67;;;2.20;;
14205;SDS011;7186;48.800;9.216;2022-09-09T08:08:35;4.90;;;2.60;;
14205;SDS011;7186;48.800;9.216;2022-09-09T08:13:28;4.50;;;2.07;;
14205;SDS011;7186;48.800;9.216;2022-09-09T08:15:55;4.80;;;2.47;;
14205;SDS011;7186;48.800;9.216;2022-09-09T08:18:27;5.83;;;2.03;;
14205;SDS011;7186;48.800;9.216;2022-09-09T08:20:53;4.70;;;2.10;;
14205;SDS011;7186;48.800;9.216;2022-09-09T08:23:18;4.57;;;2.30;;
14205;SDS011;7186;48.800;9.216;2022-09-09T08:25:43;4.57;;;2.13;;
14205;SDS011;7186;48.800;9.216;2022-09-09T08:28:10;6.07;;;2.50;;
14205;SDS011;7186;48.800;9.216;2022-09-09T08:30:35;7.67;;;2.20;;
14205;SDS011;7186;48.800;9.216;2022-09-09T08:33:00;5.50;;;2.17;;
14205;SDS011;7186;48.800;9.216;2022-09-09T08:35:26;5.37;;;2.13;;
14205;SDS011;7186;48.800;9.216;2022-09-09T08:37:53;3.97;;;2.00;;
14205;SDS011;7186;48.800;9.216;2022-09-09T08:40:20;5.73;;;1.77;;
14205;SDS011;7186;48.800;9.216;2022-09-09T08:42:49;3.70;;;1.50;;
14205;SDS011;7186;48.800;9.216;2022-09-09T08:48:06;3.10;;;1.40;;
14205;SDS011;7186;48.800;9.216;2022-09-09T08:50:34;3.33;;;1.40;;
14205;SDS011;7186;48.800;9.216;2022-09-09T08:55:44;3.70;;;1.37;;
14205;SDS011;7186;48.800;9.216;2022-09-09T08:58:31;2.37;;;1.20;;
14205;SDS011;7186;48.800;9.216;2022-09-09T09:09:00;3.47;;;1.50;;
14205;SDS011;7186;48.800;9.216;2022-09-09T09:11:26;2.47;;;1.07;;
14205;SDS011;7186;48.800;9.216;2022-09-09T09:18:47;3.83;;;1.43;;
14205;SDS011;7186;48.800;9.216;2022-09-09T09:21:14;1.50;;;1.23;;
14205;SDS011;7186;48.800;9.216;2022-09-09T09:23:59;5.97;;;1.70;;
14205;SDS011;7186;48.800;9.216;2022-09-09T09:26:25;4.27;;;1.50;;
14205;SDS011;7186;48.800;9.216;2022-09-09T09:28:54;1.87;;;1.17;;
14205;SDS011;7186;48.800;9.216;2022-09-09T09:31:21;2.33;;;1.10;;
14205;SDS011;7186;48.800;9.216;2022-09-09T09:33:48;2.17;;;1.40;;
14205;SDS011;7186;48.800;9.216;2022-09-09T09:36:14;4.20;;;1.37;;
14205;SDS011;7186;48.800;9.216;2022-09-09T09:38:51;3.80;;;1.30;;
14205;SDS011;7186;48.800;9.216;2022-09-09T09:41:17;2.20;;;1.07;;
14205;SDS011;7186;48.800;9.216;2022-09-09T09:43:53;3.33;;;1.10;;
14205;SDS011;7186;48.800;9.216;2022-09-09T09:46:24;2.87;;;1.00;;
14205;SDS011;7186;48.800;9.216;2022-09-09T09:49:01;1.03;;;0.90;;
14205;SDS011;7186;48.800;9.216;2022-09-09T09:51:27;1.97;;;1.00;;
14205;SDS011;7186;48.800;9.216;2022-09-09T09:53:53;1.90;;;0.90;;
14205;SDS011;7186;48.800;9.216;2022-09-09T09:56:25;2.27;;;1.00;;
14205;SDS011;7186;48.800;9.216;2022-09-09T09:58:51;1.20;;;1.10;;
14205;SDS011;7186;48.800;9.216;2022-09-09T10:01:28;2.07;;;1.17;;
14205;SDS011;7186;48.800;9.216;2022-09-09T10:03:57;2.37;;;1.13;;
14205;SDS011;7186;48.800;9.216;2022-09-09T10:06:29;1.77;;;1.03;;
14205;SDS011;7186;48.800;9.216;2022-09-09T10:08:54;1.27;;;1.07;;
14205;SDS011;7186;48.800;9.216;2022-09-09T10:19:04;1.27;;;1.03;;
14205;SDS011;7186;48.800;9.216;2022-09-09T10:26:44;2.73;;;1.37;;
14205;SDS011;7186;48.800;9.216;2022-09-09T10:29:18;5.03;;;1.50;;
14205;SDS011;7186;48.800;9.216;2022-09-09T10:37:11;3.60;;;1.33;;
14205;SDS011;7186;48.800;9.216;2022-09-09T10:39:42;4.53;;;1.50;;
14205;SDS011;7186;48.800;9.216;2022-09-09T10:42:14;3.80;;;1.77;;
14205;SDS011;7186;48.800;9.216;2022-09-09T10:52:29;2.50;;;1.20;;
14205;SDS011;7186;48.800;9.216;2022-09-09T10:55:01;2.83;;;1.40;;
14205;SDS011;7186;48.800;9.216;2022-09-09T11:00:21;2.10;;;1.27;;
14205;SDS011;7186;48.800;9.216;2022-09-09T11:02:51;4.60;;;1.70;;
14205;SDS011;7186;48.800;9.216;2022-09-09T11:05:19;3.37;;;1.47;;
14205;SDS011;7186;48.800;9.216;2022-09-09T11:07:47;2.97;;;1.57;;
14205;SDS011;7186;48.800;9.216;2022-09-09T11:10:18;2.63;;;1.50;;
14205;SDS011;7186;48.800;9.216;2022-09-09T11:12:46;3.63;;;1.57;;
14205;SDS011;7186;48.800;9.216;2022-09-09T11:15:15;1.40;;;1.30;;
14205;SDS011;7186;48.800;9.216;2022-09-09T11:17:46;4.73;;;1.40;;
14205;SDS011;7186;48.800;9.216;2022-09-09T11:20:14;4.70;;;1.20;;
14205;SDS011;7186;48.800;9.216;2022-09-09T11:30:54;2.77;;;1.30;;
14205;SDS011;7186;48.800;9.216;2022-09-09T11:38:52;5.90;;;1.17;;
14205;SDS011;7186;48.800;9.216;2022-09-09T11:41:18;1.80;;;1.10;;
14205;SDS011;7186;48.800;9.216;2022-09-09T11:43:46;3.90;;;0.97;;
14205;SDS011;7186;48.800;9.216;2022-09-09T11:46:13;2.57;;;1.10;;
14205;SDS011;7186;48.800;9.216;2022-09-09T11:51:09;1.00;;;1.00;;
14205;SDS011;7186;48.800;9.216;2022-09-09T11:53:46;2.10;;;1.07;;
14205;SDS011;7186;48.800;9.216;2022-09-09T11:56:12;2.40;;;0.93;;
14205;SDS011;7186;48.800;9.216;2022-09-09T11:58:40;1.37;;;0.87;;
14205;SDS011;7186;48.800;9.216;2022-09-09T12:01:13;2.97;;;0.97;;
14205;SDS011;7186;48.800;9.216;2022-09-09T12:06:28;0.77;;;0.57;;
14205;SDS011;7186;48.800;9.216;2022-09-09T12:08:58;0.57;;;0.57;;
14205;SDS011;7186;48.800;9.216;2022-09-09T12:11:30;0.80;;;0.60;;
14205;SDS011;7186;48.800;9.216;2022-09-09T12:13:56;5.10;;;0.83;;
14205;SDS011;7186;48.800;9.216;2022-09-09T12:16:32;1.20;;;0.60;;
14205;SDS011;7186;48.800;9.216;2022-09-09T12:19:14;2.00;;;0.60;;
14205;SDS011;7186;48.800;9.216;2022-09-09T12:24:39;1.07;;;0.70;;
14205;SDS011;7186;48.800;9.216;2022-09-09T12:27:18;0.80;;;0.80;;
14205;SDS011;7186;48.800;9.216;2022-09-09T12:29:49;1.50;;;0.50;;
14205;SDS011;7186;48.800;9.216;2022-09-09T12:32:25;0.70;;;0.70;;
14205;SDS011;7186;48.800;9.216;2022-09-09T12:39:57;1.53;;;0.90;;
14205;SDS011;7186;48.800;9.216;2022-09-09T12:42:23;1.80;;;1.00;;
14205;SDS011;7186;48.800;9.216;2022-09-09T12:45:03;2.90;;;0.80;;
14205;SDS011;7186;48.800;9.216;2022-09-09T12:47:44;1.07;;;0.70;;
14205;SDS011;7186;48.800;9.216;2022-09-09T12:50:29;1.40;;;0.70;;
14205;SDS011;7186;48.800;9.216;2022-09-09T12:52:59;3.23;;;0.80;;
14205;SDS011;7186;48.800;9.216;2022-09-09T12:55:30;0.70;;;0.70;;
14205;SDS011;7186;48.800;9.216;2022-09-09T12:57:56;1.67;;;1.07;;
14205;SDS011;7186;48.800;9.216;2022-09-09T13:00:23;1.60;;;0.87;;
14205;SDS011;7186;48.800;9.216;2022-09-09T13:02:50;2.43;;;0.80;;
14205;SDS011;7186;48.800;9.216;2022-09-09T13:05:21;0.80;;;0.70;;
14205;SDS011;7186;48.800;9.216;2022-09-09T13:07:47;1.27;;;0.80;;
14205;SDS011;7186;48.800;9.216;2022-09-09T13:10:13;2.17;;;1.00;;
14205;SDS011;7186;48.800;9.216;2022-09-09T13:12:39;4.70;;;2.27;;
14205;SDS011;7186;48.800;9.216;2022-09-09T13:15:04;1.43;;;0.93;;
14205;SDS011;7186;48.800;9.216;2022-09-09T13:17:35;2.13;;;1.07;;
14205;SDS011;7186;48.800;9.216;2022-09-09T13:20:01;4.93;;;1.00;;
14205;SDS011;7186;48.800;9.216;2022-09-09T13:22:31;2.13;;;0.90;;
14205;SDS011;7186;48.800;9.216;2022-09-09T13:30:20;4.37;;;1.07;;
14205;SDS011;7186;48.800;9.216;2022-09-09T13:32:47;1.87;;;1.10;;
14205;SDS011;7186;48.800;9.216;2022-09-09T13:35:24;1.77;;;1.00;;
14205;SDS011;7186;48.800;9.216;2022-09-09T13:37:49;3.03;;;1.00;;
14205;SDS011;7186;48.800;9.216;2022-09-09T13:40:18;4.10;;;0.90;;
14205;SDS011;7186;48.800;9.216;2022-09-09T13:42:44;2.00;;;0.93;;
14205;SDS011;7186;48.800;9.216;2022-09-09T13:45:19;1.37;;;0.90;;
14205;SDS011;7186;48.800;9.216;2022-09-09T13:47:45;1.10;;;0.87;;
14205;SDS011;7186;48.800;9.216;2022-09-09T13:50:20;1.70;;;0.90;;
14205;SDS011;7186;48.800;9.216;2022-09-09T13:52:47;1.43;;;0.80;;
14205;SDS011;7186;48.800;9.216;2022-09-09T13:55:12;1.43;;;0.90;;
14205;SDS011;7186;48.800;9.216;2022-09-09T13:57:37;2.70;;;1.03;;
14205;SDS011;7186;48.800;9.216;2022-09-09T14:00:03;0.70;;;0.70;;
14205;SDS011;7186;48.800;9.216;2022-09-09T14:02:28;3.70;;;0.97;;
14205;SDS011;7186;48.800;9.216;2022-09-09T14:04:53;1.07;;;0.90;;
14205;SDS011;7186;48.800;9.216;2022-09-09T14:07:20;2.07;;;0.77;;
14205;SDS011;7186;48.800;9.216;2022-09-09T14:09:46;2.03;;;1.10;;
14205;SDS011;7186;48.800;9.216;2022-09-09T14:12:14;2.57;;;1.00;;
14205;SDS011;7186;48.800;9.216;2022-09-09T14:14:40;1.37;;;0.97;;
14205;SDS011;7186;48.800;9.216;2022-09-09T14:17:07;1.17;;;0.77;;
14205;SDS011;7186;48.800;9.216;2022-09-09T14:19:32;3.10;;;0.83;;
14205;SDS011;7186;48.800;9.216;2022-09-09T14:21:57;1.70;;;0.83;;
14205;SDS011;7186;48.800;9.216;2022-09-09T14:24:23;2.13;;;1.00;;
14205;SDS011;7186;48.800;9.216;2022-09-09T14:26:48;1.33;;;0.60;;
14205;SDS011;7186;48.800;9.216;2022-09-09T14:29:13;1.83;;;0.70;;
14205;SDS011;7186;48.800;9.216;2022-09-09T14:31:39;1.30;;;0.80;;
14205;SDS011;7186;48.800;9.216;2022-09-09T14:34:04;0.77;;;0.77;;
14205;SDS011;7186;48.800;9.216;2022-09-09T14:36:29;1.10;;;0.90;;
14205;SDS011;7186;48.800;9.216;2022-09-09T14:38:55;2.70;;;1.07;;
14205;SDS011;7186;48.800;9.216;2022-09-09T14:41:20;2.47;;;1.10;;
14205;SDS011;7186;48.800;9.216;2022-09-09T14:43:47;2.27;;;0.73;;
14205;SDS011;7186;48.800;9.216;2022-09-09T14:46:16;1.17;;;0.57;;
14205;SDS011;7186;48.800;9.216;2022-09-09T14:48:42;0.90;;;0.70;;
14205;SDS011;7186;48.800;9.216;2022-09-09T14:51:10;2.30;;;1.00;;
14205;SDS011;7186;48.800;9.216;2022-09-09T14:53:35;0.63;;;0.60;;
14205;SDS011;7186;48.800;9.216;2022-09-09T14:56:08;2.83;;;0.63;;
14205;SDS011;7186;48.800;9.216;2022-09-09T14:58:34;1.13;;;0.80;;
14205;SDS011;7186;48.800;9.216;2022-09-09T15:01:06;1.97;;;0.70;;
14205;SDS011;7186;48.800;9.216;2022-09-09T15:03:32;1.27;;;0.83;;
14205;SDS011;7186;48.800;9.216;2022-09-09T15:05:58;1.17;;;0.83;;
14205;SDS011;7186;48.800;9.216;2022-09-09T15:08:23;2.17;;;0.90;;
14205;SDS011;7186;48.800;9.216;2022-09-09T15:10:48;0.93;;;0.90;;
14205;SDS011;7186;48.800;9.216;2022-09-09T15:13:15;1.13;;;0.90;;
14205;SDS011;7186;48.800;9.216;2022-09-09T15:15:41;1.30;;;0.80;;
14205;SDS011;7186;48.800;9.216;2022-09-09T15:18:07;1.00;;;0.90;;
14205;SDS011;7186;48.800;9.216;2022-09-09T15:20:32;1.97;;;0.90;;
14205;SDS011;7186;48.800;9.216;2022-09-09T15:22:57;0.60;;;0.60;;
14205;SDS011;7186;48.800;9.216;2022-09-09T15:25:22;1.47;;;0.80;;
14205;SDS011;7186;48.800;9.216;2022-09-09T15:27:48;1.07;;;0.60;;
14205;SDS011;7186;48.800;9.216;2022-09-09T15:30:13;1.17;;;0.70;;
14205;SDS011;7186;48.800;9.216;2022-09-09T15:32:38;2.63;;;0.90;;
14205;SDS011;7186;48.800;9.216;2022-09-09T15:35:04;1.23;;;0.90;;
14205;SDS011;7186;48.800;9.216;2022-09-09T15:37:30;2.10;;;0.90;;
14205;SDS011;7186;48.800;9.216;2022-09-09T15:39:55;2.27;;;0.83;;
14205;SDS011;7186;48.800;9.216;2022-09-09T15:42:23;3.60;;;1.13;;
14205;SDS011;7186;48.800;9.216;2022-09-09T15:44:50;1.13;;;0.80;;
14205;SDS011;7186;48.800;9.216;2022-09-09T15:47:15;1.13;;;0.70;;
14205;SDS011;7186;48.800;9.216;2022-09-09T15:49:41;1.90;;;0.77;;
14205;SDS011;7186;48.800;9.216;2022-09-09T15:52:06;1.50;;;0.70;;
14205;SDS011;7186;48.800;9.216;2022-09-09T15:54:32;3.60;;;0.90;;
14205;SDS011;7186;48.800;9.216;2022-09-09T15:56:59;4.00;;;1.10;;
14205;SDS011;7186;48.800;9.216;2022-09-09T15:59:26;2.80;;;0.93;;
14205;SDS011;7186;48.800;9.216;2022-09-09T16:01:53;2.50;;;1.00;;
14205;SDS011;7186;48.800;9.216;2022-09-09T16:04:18;1.97;;;1.03;;
14205;SDS011;7186;48.800;9.216;2022-09-09T16:06:51;1.50;;;0.90;;
14205;SDS011;7186;48.800;9.216;2022-09-09T16:09:16;1.90;;;1.00;;
14205;SDS011;7186;48.800;9.216;2022-09-09T16:11:41;1.67;;;1.00;;
14205;SDS011;7186;48.800;9.216;2022-09-09T16:14:07;1.10;;;1.00;;
14205;SDS011;7186;48.800;9.216;2022-09-09T16:16:32;2.33;;;1.00;;
14205;SDS011;7186;48.800;9.216;2022-09-09T16:18:58;1.10;;;1.00;;
14205;SDS011;7186;48.800;9.216;2022-09-09T16:23:49;1.37;;;1.17;;
14205;SDS011;7186;48.800;9.216;2022-09-09T16:26:15;1.37;;;1.00;;
14205;SDS011;7186;48.800;9.216;2022-09-09T16:28:41;1.33;;;1.00;;
14205;SDS011;7186;48.800;9.216;2022-09-09T16:31:07;2.30;;;1.00;;
14205;SDS011;7186;48.800;9.216;2022-09-09T16:33:32;3.03;;;0.93;;
14205;SDS011;7186;48.800;9.216;2022-09-09T16:35:57;1.57;;;1.20;;
14205;SDS011;7186;48.800;9.216;2022-09-09T16:38:24;3.03;;;0.93;;
14205;SDS011;7186;48.800;9.216;2022-09-09T16:40:50;3.57;;;0.90;;
14205;SDS011;7186;48.800;9.216;2022-09-09T16:43:15;3.83;;;1.20;;
14205;SDS011;7186;48.800;9.216;2022-09-09T16:45:41;1.93;;;0.80;;
14205;SDS011;7186;48.800;9.216;2022-09-09T16:48:07;5.63;;;0.90;;
14205;SDS011;7186;48.800;9.216;2022-09-09T16:50:32;1.40;;;0.60;;
14205;SDS011;7186;48.800;9.216;2022-09-09T16:52:57;3.43;;;1.03;;
14205;SDS011;7186;48.800;9.216;2022-09-09T16:55:22;1.47;;;0.73;;
14205;SDS011;7186;48.800;9.216;2022-09-09T16:57:48;2.97;;;0.60;;
14205;SDS011;7186;48.800;9.216;2022-09-09T17:00:14;1.23;;;0.50;;
14205;SDS011;7186;48.800;9.216;2022-09-09T17:02:40;1.13;;;0.60;;